New York, NY

Saat: 11:55 AM EST Tarih: 30 Ocak 2015 (GMT -0500)
Murray Hill | Change Station
CLOSE
Current Station
Kişisel Havadurumu İstasyonları
Location: New York, NY
Yükseklik: 98 ft
Nearby Weather Stations
Aktif Uyarı: Wind Advisory

Elev 98 ft 40.75 °N, 73.98 °W | Updated 3 seconds ago

Overcast
Kapalı
36.1
Feels Like 33
N
4.0
Rüzgar Değişken Rüzgar from Kuzey
Gusts 17.0 mil

Bugün
High -- | Low -- F°
--% Chance of Precip.
Dün
High -- | Low -- F°
Precip. -- inç
7:08 AM 5:10 PM
Şişkin Ay, 84% visible
Basınç 29.85 inç
Görüş Uzaklığı 10.0 mil
Bulutlar Çok Bulutlu 2600 ft
Çok Bulutlu 3000 ft
Kapalı 6000 ft
Rüzgar Etkisi 33
Çiğ noktası 29
Nem oranı 74%
Yağış 0.04 inç
Kar Kalınlığı Not available.
1 out of 12
Pollen .10 out of 12
Hava Kalitesi Not available.
Flu Activity Not available.
METAR KNYC 301651Z AUTO 31011G23KT 10SM BKN026 BKN030 OVC060 03/M04 A2987 RMK AO2 SLP106 T00281044

More Conditions Fewer Conditions

Basınç 29.85 inç
Görüş Uzaklığı 10.0 mil
Bulutlar Çok Bulutlu 2600 ft
Çok Bulutlu 3000 ft
Kapalı 6000 ft
Rüzgar Etkisi 33
Çiğ noktası 29
Nem oranı 74%
Yağış 0.04 inç
Kar Kalınlığı Not available.
1 out of 12
Pollen .10 out of 12
Hava Kalitesi Not available.
Flu Activity Not available.
METAR KNYC 301651Z AUTO 31011G23KT 10SM BKN026 BKN030 OVC060 03/M04 A2987 RMK AO2 SLP106 T00281044

More Conditions Fewer Conditions

10-Day Weather Forecast

Almanac

Gökbilim

Jan. 30, 2015 Rise Set
Gerçek Zaman
Günlük Tan
Deniz Tanı
Geceyarısı Yıldız Zamanı
Ay
Görünür Işığın Uzunluğu
Günün Uzunluğu
Tomorrow will be .
, % of the Moon is Illuminated

Günün En Yüksekleri

State Highs State Lows

Community

WunderPhotos

Upload Photos

1,791,809 photos uploaded!

WunderBlogs® & News

Nearby

Hava Kalitesi

  Hava Kalitesi Hava Kalitesi Endeksi Kirletici
Not available.

Kar Kalınlığı

Station Depth Yükseklik

Earthquake Activity

Şehir Distance Mag. Time & Date
Minimum magnitude displayed is 2.5.

Coastal Water Temperatures

Yer Sıcaklık

Nearby Weather Stations